sensor_id;sensor_type;location;lat;lon;timestamp;temperature;humidity
12446;DHT22;6287;50.984;7.022;2023-07-28T00:01:40;17.50;99.90
12446;DHT22;6287;50.984;7.022;2023-07-28T00:04:08;17.50;99.90
12446;DHT22;6287;50.984;7.022;2023-07-28T00:06:36;17.50;99.90
12446;DHT22;6287;50.984;7.022;2023-07-28T00:09:04;17.50;99.90
12446;DHT22;6287;50.984;7.022;2023-07-28T00:11:32;17.50;99.90
12446;DHT22;6287;50.984;7.022;2023-07-28T00:13:57;17.50;99.90
12446;DHT22;6287;50.984;7.022;2023-07-28T00:16:25;17.50;99.90
12446;DHT22;6287;50.984;7.022;2023-07-28T00:18:54;17.50;99.90
12446;DHT22;6287;50.984;7.022;2023-07-28T00:21:20;17.50;99.90
12446;DHT22;6287;50.984;7.022;2023-07-28T00:23:47;17.50;99.90
12446;DHT22;6287;50.984;7.022;2023-07-28T00:26:15;17.50;99.90
12446;DHT22;6287;50.984;7.022;2023-07-28T00:28:41;17.50;99.90
12446;DHT22;6287;50.984;7.022;2023-07-28T00:31:06;17.50;99.90
12446;DHT22;6287;50.984;7.022;2023-07-28T00:33:32;17.50;99.90
12446;DHT22;6287;50.984;7.022;2023-07-28T00:35:58;17.50;99.90
12446;DHT22;6287;50.984;7.022;2023-07-28T00:38:23;17.50;99.90
12446;DHT22;6287;50.984;7.022;2023-07-28T00:40:51;17.50;99.90
12446;DHT22;6287;50.984;7.022;2023-07-28T00:43:19;17.50;99.90
12446;DHT22;6287;50.984;7.022;2023-07-28T00:45:50;17.50;99.90
12446;DHT22;6287;50.984;7.022;2023-07-28T00:48:17;17.60;99.90
12446;DHT22;6287;50.984;7.022;2023-07-28T00:50:47;17.60;99.90
12446;DHT22;6287;50.984;7.022;2023-07-28T00:53:15;17.50;99.90
12446;DHT22;6287;50.984;7.022;2023-07-28T00:55:41;17.60;99.90
12446;DHT22;6287;50.984;7.022;2023-07-28T00:58:08;17.60;99.90
12446;DHT22;6287;50.984;7.022;2023-07-28T01:00:36;17.60;99.90
12446;DHT22;6287;50.984;7.022;2023-07-28T01:03:06;17.60;99.90
12446;DHT22;6287;50.984;7.022;2023-07-28T01:05:46;17.60;99.90
12446;DHT22;6287;50.984;7.022;2023-07-28T01:08:23;17.60;99.90
12446;DHT22;6287;50.984;7.022;2023-07-28T01:10:51;17.70;99.90
12446;DHT22;6287;50.984;7.022;2023-07-28T01:13:17;17.60;99.90
12446;DHT22;6287;50.984;7.022;2023-07-28T01:15:50;17.60;99.90
12446;DHT22;6287;50.984;7.022;2023-07-28T01:18:16;17.60;99.90
12446;DHT22;6287;50.984;7.022;2023-07-28T01:20:42;17.70;99.90
12446;DHT22;6287;50.984;7.022;2023-07-28T01:28:37;17.60;99.90
12446;DHT22;6287;50.984;7.022;2023-07-28T01:31:03;17.60;99.90
12446;DHT22;6287;50.984;7.022;2023-07-28T01:33:29;17.60;99.90
12446;DHT22;6287;50.984;7.022;2023-07-28T01:35:55;17.70;99.90
12446;DHT22;6287;50.984;7.022;2023-07-28T01:38:23;17.70;99.90
12446;DHT22;6287;50.984;7.022;2023-07-28T01:40:49;17.70;99.90
12446;DHT22;6287;50.984;7.022;2023-07-28T01:43:15;17.70;99.90
12446;DHT22;6287;50.984;7.022;2023-07-28T01:45:40;17.70;99.90
12446;DHT22;6287;50.984;7.022;2023-07-28T01:48:06;17.70;99.90
12446;DHT22;6287;50.984;7.022;2023-07-28T01:50:33;17.70;99.90
12446;DHT22;6287;50.984;7.022;2023-07-28T01:52:59;17.70;99.90
12446;DHT22;6287;50.984;7.022;2023-07-28T01:55:25;17.70;99.90
12446;DHT22;6287;50.984;7.022;2023-07-28T01:57:55;17.70;99.90
12446;DHT22;6287;50.984;7.022;2023-07-28T02:00:23;17.70;99.90
12446;DHT22;6287;50.984;7.022;2023-07-28T02:02:49;17.70;99.90
12446;DHT22;6287;50.984;7.022;2023-07-28T02:05:18;17.70;99.90
12446;DHT22;6287;50.984;7.022;2023-07-28T02:07:46;17.70;99.90
12446;DHT22;6287;50.984;7.022;2023-07-28T02:10:14;17.70;99.90
12446;DHT22;6287;50.984;7.022;2023-07-28T02:12:45;17.70;99.90
12446;DHT22;6287;50.984;7.022;2023-07-28T02:15:13;17.70;99.90
12446;DHT22;6287;50.984;7.022;2023-07-28T02:17:39;17.70;99.90
12446;DHT22;6287;50.984;7.022;2023-07-28T02:20:05;17.70;99.90
12446;DHT22;6287;50.984;7.022;2023-07-28T02:22:31;17.70;99.90
12446;DHT22;6287;50.984;7.022;2023-07-28T02:24:59;17.70;99.90
12446;DHT22;6287;50.984;7.022;2023-07-28T02:27:28;17.70;99.90
12446;DHT22;6287;50.984;7.022;2023-07-28T02:29:53;17.70;99.90
12446;DHT22;6287;50.984;7.022;2023-07-28T02:32:24;17.70;99.90
12446;DHT22;6287;50.984;7.022;2023-07-28T02:34:52;17.70;99.90
12446;DHT22;6287;50.984;7.022;2023-07-28T02:37:17;17.70;99.90
12446;DHT22;6287;50.984;7.022;2023-07-28T02:39:43;17.60;99.90
12446;DHT22;6287;50.984;7.022;2023-07-28T02:42:09;17.70;99.90
12446;DHT22;6287;50.984;7.022;2023-07-28T02:44:35;17.60;99.90
12446;DHT22;6287;50.984;7.022;2023-07-28T02:47:00;17.60;99.90
12446;DHT22;6287;50.984;7.022;2023-07-28T02:49:26;17.60;99.90
12446;DHT22;6287;50.984;7.022;2023-07-28T02:51:56;17.60;99.90
12446;DHT22;6287;50.984;7.022;2023-07-28T02:54:26;17.60;99.90
12446;DHT22;6287;50.984;7.022;2023-07-28T02:56:54;17.60;99.90
12446;DHT22;6287;50.984;7.022;2023-07-28T02:59:21;17.60;99.90
12446;DHT22;6287;50.984;7.022;2023-07-28T03:01:48;17.60;99.90
12446;DHT22;6287;50.984;7.022;2023-07-28T03:04:17;17.60;99.90
12446;DHT22;6287;50.984;7.022;2023-07-28T03:06:44;17.60;99.90
12446;DHT22;6287;50.984;7.022;2023-07-28T03:09:11;17.70;99.90
12446;DHT22;6287;50.984;7.022;2023-07-28T03:11:37;17.70;99.90
12446;DHT22;6287;50.984;7.022;2023-07-28T03:14:03;17.70;99.90
12446;DHT22;6287;50.984;7.022;2023-07-28T03:16:31;17.70;99.90
12446;DHT22;6287;50.984;7.022;2023-07-28T03:18:56;17.80;99.90
12446;DHT22;6287;50.984;7.022;2023-07-28T03:21:25;17.70;99.90
12446;DHT22;6287;50.984;7.022;2023-07-28T03:23:52;17.70;99.90
12446;DHT22;6287;50.984;7.022;2023-07-28T03:26:18;17.60;99.90
12446;DHT22;6287;50.984;7.022;2023-07-28T03:28:46;17.60;99.90
12446;DHT22;6287;50.984;7.022;2023-07-28T03:31:14;17.60;99.90
12446;DHT22;6287;50.984;7.022;2023-07-28T03:33:40;17.60;99.90
12446;DHT22;6287;50.984;7.022;2023-07-28T03:36:08;17.60;99.90
12446;DHT22;6287;50.984;7.022;2023-07-28T03:38:36;17.60;99.90
12446;DHT22;6287;50.984;7.022;2023-07-28T03:41:04;17.60;99.90
12446;DHT22;6287;50.984;7.022;2023-07-28T03:43:29;17.60;99.90
12446;DHT22;6287;50.984;7.022;2023-07-28T03:45:55;17.60;99.90
12446;DHT22;6287;50.984;7.022;2023-07-28T03:48:23;17.60;99.90
12446;DHT22;6287;50.984;7.022;2023-07-28T03:50:51;17.60;99.90
12446;DHT22;6287;50.984;7.022;2023-07-28T03:53:19;17.60;99.90
12446;DHT22;6287;50.984;7.022;2023-07-28T03:55:46;17.60;99.90
12446;DHT22;6287;50.984;7.022;2023-07-28T03:58:14;17.50;99.90
12446;DHT22;6287;50.984;7.022;2023-07-28T04:00:41;17.50;99.90
12446;DHT22;6287;50.984;7.022;2023-07-28T04:03:09;17.60;99.90
12446;DHT22;6287;50.984;7.022;2023-07-28T04:05:36;17.50;99.90
12446;DHT22;6287;50.984;7.022;2023-07-28T04:08:02;17.50;99.90
12446;DHT22;6287;50.984;7.022;2023-07-28T04:10:30;17.60;99.90
12446;DHT22;6287;50.984;7.022;2023-07-28T04:12:56;17.60;99.90
12446;DHT22;6287;50.984;7.022;2023-07-28T04:15:21;17.60;99.90
12446;DHT22;6287;50.984;7.022;2023-07-28T04:17:49;17.60;99.90
12446;DHT22;6287;50.984;7.022;2023-07-28T04:20:15;17.60;99.90
12446;DHT22;6287;50.984;7.022;2023-07-28T04:22:43;17.60;99.90
12446;DHT22;6287;50.984;7.022;2023-07-28T04:25:11;17.60;99.90
12446;DHT22;6287;50.984;7.022;2023-07-28T04:27:37;17.60;99.90
12446;DHT22;6287;50.984;7.022;2023-07-28T04:30:08;17.70;99.90
12446;DHT22;6287;50.984;7.022;2023-07-28T04:32:34;17.70;99.90
12446;DHT22;6287;50.984;7.022;2023-07-28T04:34:59;17.70;99.90
12446;DHT22;6287;50.984;7.022;2023-07-28T04:37:25;17.70;99.90
12446;DHT22;6287;50.984;7.022;2023-07-28T04:39:51;17.70;99.90
12446;DHT22;6287;50.984;7.022;2023-07-28T04:42:19;17.70;99.90
12446;DHT22;6287;50.984;7.022;2023-07-28T04:44:50;17.70;99.90
12446;DHT22;6287;50.984;7.022;2023-07-28T04:47:15;17.80;99.90
12446;DHT22;6287;50.984;7.022;2023-07-28T04:49:41;17.80;99.90
12446;DHT22;6287;50.984;7.022;2023-07-28T04:52:07;17.80;99.90
12446;DHT22;6287;50.984;7.022;2023-07-28T04:54:33;17.80;99.90
12446;DHT22;6287;50.984;7.022;2023-07-28T04:56:59;17.90;99.90
12446;DHT22;6287;50.984;7.022;2023-07-28T04:59:26;17.90;99.90
12446;DHT22;6287;50.984;7.022;2023-07-28T05:01:52;17.90;99.90
12446;DHT22;6287;50.984;7.022;2023-07-28T05:04:17;17.90;99.90
12446;DHT22;6287;50.984;7.022;2023-07-28T05:06:44;18.00;99.90
12446;DHT22;6287;50.984;7.022;2023-07-28T05:09:10;18.00;99.90
12446;DHT22;6287;50.984;7.022;2023-07-28T05:11:38;18.00;99.90
12446;DHT22;6287;50.984;7.022;2023-07-28T05:14:03;18.00;99.90
12446;DHT22;6287;50.984;7.022;2023-07-28T05:16:37;18.00;99.90
12446;DHT22;6287;50.984;7.022;2023-07-28T05:19:06;18.00;99.90
12446;DHT22;6287;50.984;7.022;2023-07-28T05:21:34;18.10;99.90
12446;DHT22;6287;50.984;7.022;2023-07-28T05:24:02;18.10;99.90
12446;DHT22;6287;50.984;7.022;2023-07-28T05:26:30;18.10;99.90
12446;DHT22;6287;50.984;7.022;2023-07-28T05:28:55;18.10;99.90
12446;DHT22;6287;50.984;7.022;2023-07-28T05:31:26;18.10;99.90
12446;DHT22;6287;50.984;7.022;2023-07-28T05:33:54;18.10;99.90
12446;DHT22;6287;50.984;7.022;2023-07-28T05:36:23;18.20;99.90
12446;DHT22;6287;50.984;7.022;2023-07-28T05:38:50;18.20;99.90
12446;DHT22;6287;50.984;7.022;2023-07-28T05:41:18;18.20;99.90
12446;DHT22;6287;50.984;7.022;2023-07-28T05:43:45;18.20;99.90
12446;DHT22;6287;50.984;7.022;2023-07-28T05:46:12;18.20;99.90
12446;DHT22;6287;50.984;7.022;2023-07-28T05:48:43;18.10;99.90
12446;DHT22;6287;50.984;7.022;2023-07-28T05:51:11;18.30;99.90
12446;DHT22;6287;50.984;7.022;2023-07-28T05:53:40;18.30;99.90
12446;DHT22;6287;50.984;7.022;2023-07-28T05:56:05;18.30;99.90
12446;DHT22;6287;50.984;7.022;2023-07-28T05:58:31;18.30;99.90
12446;DHT22;6287;50.984;7.022;2023-07-28T06:00:57;18.40;99.90
12446;DHT22;6287;50.984;7.022;2023-07-28T06:03:22;18.30;99.90
12446;DHT22;6287;50.984;7.022;2023-07-28T06:05:52;18.40;99.90
12446;DHT22;6287;50.984;7.022;2023-07-28T06:08:22;18.40;99.90
12446;DHT22;6287;50.984;7.022;2023-07-28T06:10:48;18.40;99.90
12446;DHT22;6287;50.984;7.022;2023-07-28T06:13:18;18.40;99.90
12446;DHT22;6287;50.984;7.022;2023-07-28T16:11:48;25.00;99.90
12446;DHT22;6287;50.984;7.022;2023-07-28T16:14:13;24.90;99.90
12446;DHT22;6287;50.984;7.022;2023-07-28T16:16:39;24.60;99.90
12446;DHT22;6287;50.984;7.022;2023-07-28T16:19:07;24.30;99.90
12446;DHT22;6287;50.984;7.022;2023-07-28T16:21:33;24.10;99.90
12446;DHT22;6287;50.984;7.022;2023-07-28T16:23:59;24.00;99.90
12446;DHT22;6287;50.984;7.022;2023-07-28T16:26:25;23.90;99.90
12446;DHT22;6287;50.984;7.022;2023-07-28T16:28:55;23.90;99.90
12446;DHT22;6287;50.984;7.022;2023-07-28T16:31:23;24.00;99.90
12446;DHT22;6287;50.984;7.022;2023-07-28T16:33:49;24.40;99.90
12446;DHT22;6287;50.984;7.022;2023-07-28T16:36:20;25.10;99.90
12446;DHT22;6287;50.984;7.022;2023-07-28T16:38:45;25.80;99.90
12446;DHT22;6287;50.984;7.022;2023-07-28T16:41:11;26.00;99.90
12446;DHT22;6287;50.984;7.022;2023-07-28T16:43:39;26.00;99.90
12446;DHT22;6287;50.984;7.022;2023-07-28T16:46:07;25.70;99.90
12446;DHT22;6287;50.984;7.022;2023-07-28T16:48:37;25.50;99.90
12446;DHT22;6287;50.984;7.022;2023-07-28T16:51:02;25.30;99.90
12446;DHT22;6287;50.984;7.022;2023-07-28T16:53:30;25.20;99.90
12446;DHT22;6287;50.984;7.022;2023-07-28T16:55:56;25.00;99.90
12446;DHT22;6287;50.984;7.022;2023-07-28T16:58:21;24.90;99.90
12446;DHT22;6287;50.984;7.022;2023-07-28T17:00:47;24.80;99.90
12446;DHT22;6287;50.984;7.022;2023-07-28T17:03:15;24.80;99.90
12446;DHT22;6287;50.984;7.022;2023-07-28T17:05:43;24.90;99.90
12446;DHT22;6287;50.984;7.022;2023-07-28T17:08:09;24.90;99.90
12446;DHT22;6287;50.984;7.022;2023-07-28T17:10:34;24.70;99.90
12446;DHT22;6287;50.984;7.022;2023-07-28T17:13:00;24.90;99.90
12446;DHT22;6287;50.984;7.022;2023-07-28T17:15:28;25.00;99.90
12446;DHT22;6287;50.984;7.022;2023-07-28T17:17:56;25.20;99.90
12446;DHT22;6287;50.984;7.022;2023-07-28T17:20:22;25.30;99.90
12446;DHT22;6287;50.984;7.022;2023-07-28T17:22:47;25.40;99.90
12446;DHT22;6287;50.984;7.022;2023-07-28T17:25:13;25.50;99.90
12446;DHT22;6287;50.984;7.022;2023-07-28T17:27:41;25.50;99.90
12446;DHT22;6287;50.984;7.022;2023-07-28T17:30:14;25.40;99.90
12446;DHT22;6287;50.984;7.022;2023-07-28T17:32:40;25.10;99.90
12446;DHT22;6287;50.984;7.022;2023-07-28T17:35:09;24.90;99.90
12446;DHT22;6287;50.984;7.022;2023-07-28T17:37:34;24.70;99.90
12446;DHT22;6287;50.984;7.022;2023-07-28T17:40:00;24.50;99.90
12446;DHT22;6287;50.984;7.022;2023-07-28T17:42:26;24.30;99.90
12446;DHT22;6287;50.984;7.022;2023-07-28T17:44:52;24.20;99.90
12446;DHT22;6287;50.984;7.022;2023-07-28T17:47:18;24.00;99.90
12446;DHT22;6287;50.984;7.022;2023-07-28T17:49:47;24.00;99.90
12446;DHT22;6287;50.984;7.022;2023-07-28T17:52:13;23.90;99.90
12446;DHT22;6287;50.984;7.022;2023-07-28T17:54:39;23.80;99.90
12446;DHT22;6287;50.984;7.022;2023-07-28T17:57:05;23.70;99.90
12446;DHT22;6287;50.984;7.022;2023-07-28T17:59:30;23.60;99.90
12446;DHT22;6287;50.984;7.022;2023-07-28T18:01:58;23.50;99.90
12446;DHT22;6287;50.984;7.022;2023-07-28T18:04:26;23.40;99.90
12446;DHT22;6287;50.984;7.022;2023-07-28T18:06:52;23.30;99.90
12446;DHT22;6287;50.984;7.022;2023-07-28T18:09:17;23.30;99.90
12446;DHT22;6287;50.984;7.022;2023-07-28T18:11:43;23.30;99.90
12446;DHT22;6287;50.984;7.022;2023-07-28T18:14:11;23.20;99.90
12446;DHT22;6287;50.984;7.022;2023-07-28T18:16:39;23.10;99.90
12446;DHT22;6287;50.984;7.022;2023-07-28T18:19:05;23.10;99.90
12446;DHT22;6287;50.984;7.022;2023-07-28T18:21:30;23.00;99.90
12446;DHT22;6287;50.984;7.022;2023-07-28T18:23:57;23.00;99.90
12446;DHT22;6287;50.984;7.022;2023-07-28T18:26:22;22.80;99.90
12446;DHT22;6287;50.984;7.022;2023-07-28T18:28:48;22.80;99.90
12446;DHT22;6287;50.984;7.022;2023-07-28T18:31:16;22.80;99.90
12446;DHT22;6287;50.984;7.022;2023-07-28T18:33:44;22.80;99.90
12446;DHT22;6287;50.984;7.022;2023-07-28T18:36:12;22.70;99.90
12446;DHT22;6287;50.984;7.022;2023-07-28T18:38:37;22.70;99.90
12446;DHT22;6287;50.984;7.022;2023-07-28T18:41:03;22.60;99.90
12446;DHT22;6287;50.984;7.022;2023-07-28T18:43:29;22.50;99.90
12446;DHT22;6287;50.984;7.022;2023-07-28T18:45:55;22.50;99.90
12446;DHT22;6287;50.984;7.022;2023-07-28T18:48:20;22.40;99.90
12446;DHT22;6287;50.984;7.022;2023-07-28T18:50:51;22.40;99.90
12446;DHT22;6287;50.984;7.022;2023-07-28T18:53:17;22.30;99.90
12446;DHT22;6287;50.984;7.022;2023-07-28T18:55:42;22.30;99.90
12446;DHT22;6287;50.984;7.022;2023-07-28T18:58:10;22.20;99.90
12446;DHT22;6287;50.984;7.022;2023-07-28T19:00:36;22.10;99.90
12446;DHT22;6287;50.984;7.022;2023-07-28T19:03:04;22.00;99.90
12446;DHT22;6287;50.984;7.022;2023-07-28T19:05:29;22.00;99.90
12446;DHT22;6287;50.984;7.022;2023-07-28T19:07:58;21.90;99.90
12446;DHT22;6287;50.984;7.022;2023-07-28T19:10:23;21.90;99.90
12446;DHT22;6287;50.984;7.022;2023-07-28T19:12:51;21.80;99.90
12446;DHT22;6287;50.984;7.022;2023-07-28T19:15:17;21.70;99.90
12446;DHT22;6287;50.984;7.022;2023-07-28T19:17:42;21.70;99.90
12446;DHT22;6287;50.984;7.022;2023-07-28T19:20:11;21.70;99.90
12446;DHT22;6287;50.984;7.022;2023-07-28T19:22:40;21.60;99.90
12446;DHT22;6287;50.984;7.022;2023-07-28T19:25:08;21.50;99.90
12446;DHT22;6287;50.984;7.022;2023-07-28T19:27:34;21.50;99.90
12446;DHT22;6287;50.984;7.022;2023-07-28T19:30:03;21.40;99.90
12446;DHT22;6287;50.984;7.022;2023-07-28T19:32:33;21.40;99.90
12446;DHT22;6287;50.984;7.022;2023-07-28T19:34:59;21.40;99.90
12446;DHT22;6287;50.984;7.022;2023-07-28T19:37:27;21.30;99.90
12446;DHT22;6287;50.984;7.022;2023-07-28T19:39:55;21.30;99.90
12446;DHT22;6287;50.984;7.022;2023-07-28T19:42:23;21.30;99.90
12446;DHT22;6287;50.984;7.022;2023-07-28T19:44:49;21.20;99.90
12446;DHT22;6287;50.984;7.022;2023-07-28T19:47:16;21.20;99.90
12446;DHT22;6287;50.984;7.022;2023-07-28T19:49:41;21.20;99.90
12446;DHT22;6287;50.984;7.022;2023-07-28T19:52:07;21.20;99.90
12446;DHT22;6287;50.984;7.022;2023-07-28T19:54:35;21.20;99.90
12446;DHT22;6287;50.984;7.022;2023-07-28T19:57:01;21.20;99.90
12446;DHT22;6287;50.984;7.022;2023-07-28T19:59:27;21.10;99.90
12446;DHT22;6287;50.984;7.022;2023-07-28T20:01:52;21.10;99.90
12446;DHT22;6287;50.984;7.022;2023-07-28T20:04:19;21.10;99.90
12446;DHT22;6287;50.984;7.022;2023-07-28T20:06:44;21.00;99.90
12446;DHT22;6287;50.984;7.022;2023-07-28T20:09:10;21.00;99.90
12446;DHT22;6287;50.984;7.022;2023-07-28T20:11:36;21.00;99.90
12446;DHT22;6287;50.984;7.022;2023-07-28T20:14:01;21.00;99.90
12446;DHT22;6287;50.984;7.022;2023-07-28T20:16:27;21.00;99.90
12446;DHT22;6287;50.984;7.022;2023-07-28T20:18:55;21.00;99.90
12446;DHT22;6287;50.984;7.022;2023-07-28T20:21:26;21.00;99.90
12446;DHT22;6287;50.984;7.022;2023-07-28T20:23:54;21.00;99.90
12446;DHT22;6287;50.984;7.022;2023-07-28T20:26:19;21.00;99.90
12446;DHT22;6287;50.984;7.022;2023-07-28T20:28:47;21.00;99.90
12446;DHT22;6287;50.984;7.022;2023-07-28T20:31:13;20.90;99.90
12446;DHT22;6287;50.984;7.022;2023-07-28T20:33:39;20.90;99.90
12446;DHT22;6287;50.984;7.022;2023-07-28T20:36:05;20.90;99.90
12446;DHT22;6287;50.984;7.022;2023-07-28T20:38:33;20.90;99.90
12446;DHT22;6287;50.984;7.022;2023-07-28T20:41:01;20.90;99.90
12446;DHT22;6287;50.984;7.022;2023-07-28T20:43:29;20.80;99.90
12446;DHT22;6287;50.984;7.022;2023-07-28T20:45:58;20.80;99.90
12446;DHT22;6287;50.984;7.022;2023-07-28T20:48:27;20.80;99.90
12446;DHT22;6287;50.984;7.022;2023-07-28T20:50:57;20.80;99.90
12446;DHT22;6287;50.984;7.022;2023-07-28T20:53:23;20.80;99.90
12446;DHT22;6287;50.984;7.022;2023-07-28T20:55:49;20.80;99.90
12446;DHT22;6287;50.984;7.022;2023-07-28T20:58:19;20.80;99.90
12446;DHT22;6287;50.984;7.022;2023-07-28T21:00:47;20.80;99.90
12446;DHT22;6287;50.984;7.022;2023-07-28T21:03:12;20.80;99.90
12446;DHT22;6287;50.984;7.022;2023-07-28T21:05:38;20.80;99.90
12446;DHT22;6287;50.984;7.022;2023-07-28T21:08:04;20.80;99.90
12446;DHT22;6287;50.984;7.022;2023-07-28T21:10:29;20.80;99.90
12446;DHT22;6287;50.984;7.022;2023-07-28T21:12:58;20.80;99.90
12446;DHT22;6287;50.984;7.022;2023-07-28T21:15:26;20.80;99.90
12446;DHT22;6287;50.984;7.022;2023-07-28T21:17:51;20.80;99.90
12446;DHT22;6287;50.984;7.022;2023-07-28T21:20:17;20.80;99.90
12446;DHT22;6287;50.984;7.022;2023-07-28T21:22:45;20.80;99.90
12446;DHT22;6287;50.984;7.022;2023-07-28T21:25:11;20.80;99.90
12446;DHT22;6287;50.984;7.022;2023-07-28T21:27:42;20.90;99.90
12446;DHT22;6287;50.984;7.022;2023-07-28T21:30:08;20.90;99.90
12446;DHT22;6287;50.984;7.022;2023-07-28T21:32:36;20.90;99.90
12446;DHT22;6287;50.984;7.022;2023-07-28T21:35:05;20.90;99.90
12446;DHT22;6287;50.984;7.022;2023-07-28T21:37:31;20.90;99.90
12446;DHT22;6287;50.984;7.022;2023-07-28T21:39:59;20.90;99.90
12446;DHT22;6287;50.984;7.022;2023-07-28T21:42:27;20.90;99.90
12446;DHT22;6287;50.984;7.022;2023-07-28T21:44:55;20.90;99.90
12446;DHT22;6287;50.984;7.022;2023-07-28T21:47:23;20.90;99.90
12446;DHT22;6287;50.984;7.022;2023-07-28T21:49:52;20.90;99.90
12446;DHT22;6287;50.984;7.022;2023-07-28T21:52:18;20.90;99.90
12446;DHT22;6287;50.984;7.022;2023-07-28T21:54:43;20.80;99.90
12446;DHT22;6287;50.984;7.022;2023-07-28T21:57:09;20.80;99.90
12446;DHT22;6287;50.984;7.022;2023-07-28T21:59:39;20.80;99.90
12446;DHT22;6287;50.984;7.022;2023-07-28T22:02:08;20.80;99.90
12446;DHT22;6287;50.984;7.022;2023-07-28T22:04:36;20.80;99.90
12446;DHT22;6287;50.984;7.022;2023-07-28T22:07:01;20.80;99.90
12446;DHT22;6287;50.984;7.022;2023-07-28T22:09:29;20.80;99.90
12446;DHT22;6287;50.984;7.022;2023-07-28T22:11:55;20.70;99.90
12446;DHT22;6287;50.984;7.022;2023-07-28T22:14:25;20.70;99.90
12446;DHT22;6287;50.984;7.022;2023-07-28T22:16:50;20.70;99.90
12446;DHT22;6287;50.984;7.022;2023-07-28T22:19:16;20.70;99.90
12446;DHT22;6287;50.984;7.022;2023-07-28T22:21:47;20.70;99.90
12446;DHT22;6287;50.984;7.022;2023-07-28T22:24:13;20.60;99.90
12446;DHT22;6287;50.984;7.022;2023-07-28T22:26:38;20.70;99.90
12446;DHT22;6287;50.984;7.022;2023-07-28T22:29:06;20.70;99.90
12446;DHT22;6287;50.984;7.022;2023-07-28T22:31:32;20.60;99.90
12446;DHT22;6287;50.984;7.022;2023-07-28T22:33:58;20.60;99.90
12446;DHT22;6287;50.984;7.022;2023-07-28T22:36:24;20.60;99.90
12446;DHT22;6287;50.984;7.022;2023-07-28T22:38:49;20.50;99.90
12446;DHT22;6287;50.984;7.022;2023-07-28T22:41:17;20.50;99.90
12446;DHT22;6287;50.984;7.022;2023-07-28T22:43:49;20.40;99.90
12446;DHT22;6287;50.984;7.022;2023-07-28T22:46:15;20.40;99.90
12446;DHT22;6287;50.984;7.022;2023-07-28T22:48:41;20.30;99.90
12446;DHT22;6287;50.984;7.022;2023-07-28T22:51:09;20.30;99.90
12446;DHT22;6287;50.984;7.022;2023-07-28T22:53:34;20.20;99.90
12446;DHT22;6287;50.984;7.022;2023-07-28T22:56:00;20.20;99.90
12446;DHT22;6287;50.984;7.022;2023-07-28T22:58:28;20.10;99.90
12446;DHT22;6287;50.984;7.022;2023-07-28T23:00:57;20.10;99.90
12446;DHT22;6287;50.984;7.022;2023-07-28T23:03:27;20.10;99.90
12446;DHT22;6287;50.984;7.022;2023-07-28T23:05:52;20.00;99.90
12446;DHT22;6287;50.984;7.022;2023-07-28T23:08:20;20.00;99.90
12446;DHT22;6287;50.984;7.022;2023-07-28T23:10:48;19.90;99.90
12446;DHT22;6287;50.984;7.022;2023-07-28T23:13:13;19.90;99.90
12446;DHT22;6287;50.984;7.022;2023-07-28T23:15:43;19.80;99.90
12446;DHT22;6287;50.984;7.022;2023-07-28T23:18:09;19.80;99.90
12446;DHT22;6287;50.984;7.022;2023-07-28T23:20:38;19.70;99.90
12446;DHT22;6287;50.984;7.022;2023-07-28T23:23:05;19.80;99.90
12446;DHT22;6287;50.984;7.022;2023-07-28T23:25:33;19.70;99.90
12446;DHT22;6287;50.984;7.022;2023-07-28T23:27:59;19.70;99.90
12446;DHT22;6287;50.984;7.022;2023-07-28T23:30:29;19.70;99.90
12446;DHT22;6287;50.984;7.022;2023-07-28T23:32:57;19.70;99.90
12446;DHT22;6287;50.984;7.022;2023-07-28T23:35:23;19.70;99.90
12446;DHT22;6287;50.984;7.022;2023-07-28T23:37:51;19.70;99.90
12446;DHT22;6287;50.984;7.022;2023-07-28T23:40:16;19.70;99.90
12446;DHT22;6287;50.984;7.022;2023-07-28T23:42:44;19.70;99.90
12446;DHT22;6287;50.984;7.022;2023-07-28T23:45:10;19.70;99.90
12446;DHT22;6287;50.984;7.022;2023-07-28T23:47:38;19.70;99.90
12446;DHT22;6287;50.984;7.022;2023-07-28T23:50:04;19.60;99.90
12446;DHT22;6287;50.984;7.022;2023-07-28T23:52:30;19.60;99.90
12446;DHT22;6287;50.984;7.022;2023-07-28T23:54:58;19.60;99.90
12446;DHT22;6287;50.984;7.022;2023-07-28T23:57:24;19.60;99.90
12446;DHT22;6287;50.984;7.022;2023-07-28T23:59:49;19.70;99.90
